Dades meteomassalio
Diari Summary for Abril 26, 2017 Units:  Metric    English   Both
« Previous Day
Next Day »
Diari Semanal Mensual Anual Personalitzat
  Maxima: Minima: Mijana:
Temperatura: -17.8 °C -12.6 °C -11 °C
Rosada: -17.8 °C -17.6 °C -13.9 °C
Humitat: Humidity % 53 % 71 %
Velocitat del vent: 0 km/h 0 km/h 29.3 km/h
Racha vent: 0 km/h - -
Vent:- - WNW
Pressio: 0 hPa 34086.9 hPa -
Pluja: 7.62 mm    
Historical Graphs
 
 
Tabular Data for Abril 26, 2017
Time Temperature Dew Point Pressure Wind Wind Speed Wind Gust Humidity Rainfall Rate (Hourly) solar Conditions
-17.8 °C -17.8 °C 0 hPa Calm     Humidity % 0 mm SolarRadiationWatts/m^2 W/m2 Conditions
00:00 -9.1 °C -9.9 °C 34086.9 hPa Calm     91 % 0 mm 0.0 W/m2 RA
00:05 -9.3 °C -10.2 °C 34097 hPa WNW 38.8 km/h 38.8 km/h 90 % 0 mm 0.0 W/m2 CLR
00:10 -9.7 °C -10.7 °C 34097 hPa NNW 51.8 km/h 51.8 km/h 89 % 0 mm 0.0 W/m2 CLR
00:15 -10 °C -11.1 °C 34097 hPa WNW 41.7 km/h 41.7 km/h 88 % 0 mm 0.0 W/m2 CLR
00:20 -10.2 °C -11.2 °C 34097 hPa NW 50.7 km/h 50.7 km/h 89 % 0 mm 0.0 W/m2 CLR
00:25 -10.3 °C -11.3 °C 34107.2 hPa West 47.6 km/h 47.6 km/h 89 % 0 mm 0.0 W/m2 CLR
00:30 -10.4 °C -11.4 °C 34107.2 hPa West 50.7 km/h 50.7 km/h 89 % 0 mm 0.0 W/m2 CLR
00:35 -10.4 °C -11.4 °C 34107.2 hPa WNW 50.7 km/h 50.7 km/h 89 % 0 mm 0.0 W/m2 CLR
00:40 -10.5 °C -11.6 °C 34107.2 hPa West 49.2 km/h 49.2 km/h 88 % 0 mm 0.0 W/m2 CLR
00:45 -10.6 °C -11.7 °C 34120.7 hPa West 49.2 km/h 49.2 km/h 87 % 0 mm 0.0 W/m2 CLR
00:50 -10.7 °C -11.8 °C 34107.2 hPa WNW 50.7 km/h 50.7 km/h 87 % 0 mm 0.0 W/m2 CLR
00:55 -10.7 °C -11.9 °C 34107.2 hPa WNW 50.7 km/h 50.7 km/h 87 % 0 mm 0.0 W/m2 CLR
01:00 -10.8 °C -11.9 °C 34107.2 hPa WNW 41.7 km/h 41.7 km/h 87 % 0 mm 0.0 W/m2 CLR
01:05 -10.8 °C -12.1 °C 34107.2 hPa NW 44.7 km/h 44.7 km/h 86 % 0 mm 0.0 W/m2 CLR
01:10 -10.8 °C -12.1 °C 34107.2 hPa WNW 46.7 km/h 46.7 km/h 86 % 0 mm 0.0 W/m2 CLR
01:15 -10.8 °C -12.3 °C 34107.2 hPa West 50.7 km/h 50.7 km/h 84 % 0 mm 0.0 W/m2 CLR
01:20 -10.8 °C -12.3 °C 34107.2 hPa WNW 35.7 km/h 35.7 km/h 84 % 0 mm 0.0 W/m2 CLR
01:25 -10.8 °C -12.4 °C 34107.2 hPa West 33.6 km/h 33.6 km/h 83 % 0 mm 0.0 W/m2 CLR
01:30 -10.8 °C -12.4 °C 34107.2 hPa West 32.8 km/h 32.8 km/h 83 % 0 mm 0.0 W/m2 CLR
01:35 -10.8 °C -12.5 °C 34107.2 hPa WNW 38.8 km/h 38.8 km/h 82 % 0 mm 0.0 W/m2 CLR
01:40 -10.8 °C -12.5 °C 34107.2 hPa WNW 38.8 km/h 38.8 km/h 82 % 0 mm 0.0 W/m2 CLR
01:45 -10.9 °C -12.6 °C 34107.2 hPa WNW 28.5 km/h 28.5 km/h 81 % 0 mm 0.0 W/m2 CLR
01:50 -10.9 °C -12.7 °C 34120.7 hPa West 38.8 km/h 38.8 km/h 81 % 0 mm 0.0 W/m2 CLR
01:55 -10.9 °C -12.7 °C 34107.2 hPa West 41.7 km/h 41.7 km/h 80 % 0 mm 0.0 W/m2 CLR
02:00 -10.9 °C -12.7 °C 34107.2 hPa West 38.8 km/h 38.8 km/h 80 % 0 mm 0.0 W/m2 CLR
02:05 -10.8 °C -12.8 °C 34107.2 hPa West 41.7 km/h 41.7 km/h 79 % 0 mm 0.0 W/m2 CLR
02:10 -10.8 °C -12.9 °C 34107.2 hPa West 44.7 km/h 44.7 km/h 78 % 0 mm 0.0 W/m2 CLR
02:15 -10.8 °C -12.9 °C 34120.7 hPa West 29.8 km/h 29.8 km/h 78 % 0 mm 0.0 W/m2 CLR
02:20 -10.8 °C -13 °C 34107.2 hPa West 15 km/h 15 km/h 77 % 0 mm 0.0 W/m2 CLR
02:25 -10.8 °C -13 °C 34107.2 hPa WNW 6 km/h 6 km/h 77 % 0 mm 0.0 W/m2 CLR
02:26 -10.8 °C -13 °C 34107.2 hPa West 9 km/h 9 km/h 77 % 0 mm 0.0 W/m2 CLR
02:31 -10.9 °C -12.9 °C 34107.2 hPa Calm     78 % 0 mm 0.0 W/m2 CLR
02:36 -10.9 °C -13.1 °C 34107.2 hPa WSW 3.1 km/h   77 % 0 mm 0.0 W/m2 CLR
02:41 -10.9 °C -13.1 °C 34107.2 hPa West 15 km/h 15 km/h 77 % 0 mm 0.0 W/m2 CLR
02:46 -10.8 °C -13 °C 34107.2 hPa WSW 11.9 km/h 11.9 km/h 77 % 0 mm 0.0 W/m2 CLR
02:51 -10.9 °C -13.1 °C 34107.2 hPa West 9 km/h 9 km/h 77 % 0 mm 0.0 W/m2 CLR
02:56 -10.9 °C -12.9 °C 34107.2 hPa Calm     78 % 0 mm 0.0 W/m2 CLR
03:01 -10.9 °C -12.9 °C 34107.2 hPa Calm     78 % 0 mm 0.0 W/m2 CLR
03:06 -10.9 °C -12.9 °C 34107.2 hPa Calm     79 % 0 mm 0.0 W/m2 CLR
03:11 -10.9 °C -12.8 °C 34107.2 hPa Calm     80 % 0 mm 0.0 W/m2 CLR
03:16 -10.9 °C -12.7 °C 34107.2 hPa Calm     81 % 0 mm 0.0 W/m2 CLR
03:21 -11 °C -12.7 °C 34107.2 hPa Calm     82 % 0 mm 0.0 W/m2 CLR
03:26 -11.1 °C -12.7 °C 34107.2 hPa Calm     82 % 0 mm 0.0 W/m2 CLR
03:31 -11.1 °C -12.7 °C 34107.2 hPa Calm     82 % 0 mm 0.0 W/m2 CLR
03:36 -11.1 °C -12.7 °C 34107.2 hPa WNW 15 km/h 15 km/h 82 % 0 mm 0.0 W/m2 CLR
03:41 -11.1 °C -12.9 °C 34107.2 hPa NW 11.9 km/h 11.9 km/h 81 % 0 mm 0.0 W/m2 CLR
03:46 -11.2 °C -12.9 °C 34107.2 hPa WNW 2.6 km/h   81 % 0 mm 0.0 W/m2 CLR
03:51 -11.2 °C -13.1 °C 34107.2 hPa WNW 23.8 km/h 23.8 km/h 80 % 0 mm 0.0 W/m2 CLR
03:56 -11.2 °C -13.1 °C 34107.2 hPa WNW 15 km/h 15 km/h 80 % 0 mm 0.0 W/m2 CLR
04:01 -11.2 °C -13.1 °C 34107.2 hPa WNW 17.9 km/h 17.9 km/h 80 % 0 mm 0.0 W/m2 CLR
04:06 -11.3 °C -13.2 °C 34107.2 hPa NW 23.8 km/h 23.8 km/h 79 % 0 mm 0.0 W/m2 CLR
04:11 -11.3 °C -13.2 °C 34107.2 hPa WNW 28.5 km/h 28.5 km/h 79 % 0 mm 0.0 W/m2 CLR
04:16 -11.3 °C -13.3 °C 34107.2 hPa WNW 25.9 km/h 25.9 km/h 79 % 0 mm 0.0 W/m2 CLR
04:21 -11.3 °C -13.2 °C 34120.7 hPa WNW 10.3 km/h 10.3 km/h 80 % 0 mm 0.0 W/m2 CLR
04:26 -11.3 °C -13.2 °C 34107.2 hPa WNW 10.3 km/h 10.3 km/h 80 % 0 mm 0.0 W/m2 CLR
04:31 -11.3 °C -13.3 °C 34107.2 hPa NW 23.8 km/h 23.8 km/h 79 % 0 mm 0.0 W/m2 CLR
04:36 -11.3 °C -13.2 °C 34107.2 hPa WNW 20.9 km/h 20.9 km/h 80 % 0 mm 0.0 W/m2 CLR
04:41 -11.3 °C -13.2 °C 34107.2 hPa WNW 26.9 km/h 26.9 km/h 80 % 0 mm 0.0 W/m2 CLR
04:46 -11.3 °C -13.2 °C 34107.2 hPa WNW 23.8 km/h 23.8 km/h 80 % 0 mm 0.0 W/m2 CLR
04:51 -11.3 °C -13.1 °C 34107.2 hPa West 25.9 km/h 25.9 km/h 81 % 0 mm 0.0 W/m2 CLR
04:56 -11.4 °C -13.2 °C 34107.2 hPa West 26.9 km/h 26.9 km/h 81 % 0 mm 0.0 W/m2 CLR
05:01 -11.4 °C -13 °C 34107.2 hPa West 15 km/h 15 km/h 82 % 0 mm 0.0 W/m2 CLR
05:06 -11.4 °C -13.1 °C 34107.2 hPa West 17.9 km/h 17.9 km/h 82 % 0 mm 0.0 W/m2 CLR
05:11 -11.5 °C -13.1 °C 34107.2 hPa Calm     82 % 0 mm 0.0 W/m2 CLR
05:16 -11.5 °C -13.2 °C 34107.2 hPa WNW 11.9 km/h 11.9 km/h 82 % 0 mm 0.0 W/m2 CLR
05:21 -11.6 °C -13.1 °C 34107.2 hPa Calm     83 % 0 mm 0.0 W/m2 CLR
05:26 -11.6 °C -13.1 °C 34107.2 hPa WNW 15.6 km/h 15.6 km/h 83 % 0 mm 0.0 W/m2 CLR
05:31 -11.6 °C -13.2 °C 34107.2 hPa Calm     82 % 0 mm 0.0 W/m2 CLR
05:36 -11.6 °C -13.1 °C 34107.2 hPa WNW 23.8 km/h 23.8 km/h 83 % 0 mm 0.0 W/m2 CLR
05:41 -11.6 °C -13.2 °C 34107.2 hPa West 9 km/h 9 km/h 83 % 0 mm 0.0 W/m2 CLR
05:46 -11.6 °C -13.2 °C 34107.2 hPa WNW 11.9 km/h 11.9 km/h 83 % 0 mm 0.0 W/m2 CLR
05:51 -11.6 °C -13.2 °C 34107.2 hPa West 10.3 km/h 10.3 km/h 83 % 0 mm 0.0 W/m2 CLR
05:56 -11.6 °C -13.2 °C 34107.2 hPa WNW 17.9 km/h 17.9 km/h 83 % 0 mm 0.0 W/m2 CLR
06:01 -11.6 °C -13.2 °C 34107.2 hPa West 11.9 km/h 11.9 km/h 83 % 0 mm 0.0 W/m2 CLR
06:06 -11.6 °C -13.2 °C 34107.2 hPa WNW 29.8 km/h 29.8 km/h 83 % 0 mm 0.0 W/m2 CLR
06:11 -11.6 °C -13.2 °C 34107.2 hPa WNW 28.5 km/h 28.5 km/h 83 % 0 mm 0.0 W/m2 CLR
06:16 -11.6 °C -13.2 °C 34107.2 hPa West 28.5 km/h 28.5 km/h 83 % 0 mm 0.0 W/m2 CLR
06:21 -11.6 °C -13.2 °C 34107.2 hPa WSW 23.8 km/h 23.8 km/h 83 % 0 mm 0.0 W/m2 CLR
06:26 -11.6 °C -13.2 °C 34107.2 hPa West 28.5 km/h 28.5 km/h 83 % 0 mm 0.0 W/m2 CLR
06:31 -11.6 °C -13.1 °C 34107.2 hPa WNW 23.3 km/h 23.3 km/h 83 % 0 mm 0.0 W/m2 CLR
06:36 -11.6 °C -13.1 °C 34107.2 hPa West 15.6 km/h 15.6 km/h 83 % 0 mm 0.0 W/m2 CLR
06:41 -11.6 °C -13.2 °C 34107.2 hPa WNW 29.8 km/h 29.8 km/h 82 % 0 mm 0.0 W/m2 CLR
06:46 -11.6 °C -13.2 °C 34107.2 hPa West 26.9 km/h 26.9 km/h 82 % 0 mm 0.0 W/m2 CLR
06:51 -11.6 °C -13.2 °C 34107.2 hPa West 29.8 km/h 29.8 km/h 82 % 0 mm 0.0 W/m2 CLR
06:56 -11.6 °C -13.2 °C 34107.2 hPa West 29.8 km/h 29.8 km/h 82 % 0 mm 0.0 W/m2 CLR
07:01 -11.6 °C -13.2 °C 34107.2 hPa West 26.9 km/h 26.9 km/h 82 % 0 mm 0.0 W/m2 OVC
07:06 -11.6 °C -13.2 °C 34107.2 hPa WNW 29.8 km/h 29.8 km/h 82 % 0 mm 0.0 W/m2 OVC
07:11 -11.6 °C -13.2 °C 34107.2 hPa West 29.8 km/h 29.8 km/h 82 % 0 mm 0.0 W/m2 OVC
07:17 -11.5 °C -13.3 °C 34107.2 hPa West 29.8 km/h 29.8 km/h 81 % 0 mm 0.0 W/m2 OVC
07:22 -11.5 °C -13.3 °C 34120.7 hPa West 36.2 km/h 36.2 km/h 81 % 0 mm 0.0 W/m2 OVC
07:27 -11.5 °C -13.3 °C 34120.7 hPa West 32.8 km/h 32.8 km/h 81 % 0 mm 5.0 W/m2 OVC
07:32 -11.5 °C -13.3 °C 34120.7 hPa West 29.8 km/h 29.8 km/h 81 % 0 mm 7.0 W/m2 BKN
07:37 -11.5 °C -13.2 °C 34120.7 hPa WNW 29.8 km/h 29.8 km/h 81 % 0 mm 12.0 W/m2 BKN
07:42 -11.5 °C -13.3 °C 34120.7 hPa WSW 15 km/h 15 km/h 81 % 0 mm 21.0 W/m2 BKN
07:47 -11.5 °C -13.3 °C 34130.9 hPa WSW 9 km/h 9 km/h 81 % 0 mm 19.0 W/m2 BKN
07:52 -11.5 °C -13.3 °C 34130.9 hPa WNW 28.5 km/h 28.5 km/h 81 % 0 mm 18.0 W/m2 BKN
07:57 -11.5 °C -13.3 °C 34130.9 hPa WSW 17.9 km/h 17.9 km/h 81 % 0 mm 16.0 W/m2 BKN
08:02 -11.5 °C -13.3 °C 34130.9 hPa West 29.8 km/h 29.8 km/h 81 % 0 mm 23.0 W/m2 BKN
08:07 -11.6 °C -13.3 °C 34144.4 hPa WSW 11.9 km/h 11.9 km/h 81 % 0 mm 32.0 W/m2 BKN
08:12 -11.6 °C -13.3 °C 34144.4 hPa WSW 15 km/h 15 km/h 81 % 0 mm 35.0 W/m2 BKN
08:17 -11.5 °C -13.3 °C 34144.4 hPa WSW 23.8 km/h 23.8 km/h 81 % 0 mm 42.0 W/m2 BKN
08:22 -11.5 °C -13.3 °C 34144.4 hPa West 20.9 km/h 20.9 km/h 81 % 0 mm 39.0 W/m2 BKN
08:27 -11.5 °C -13.3 °C 34144.4 hPa West 26.9 km/h 26.9 km/h 81 % 0 mm 49.0 W/m2 BKN
08:32 -11.5 °C -13.3 °C 34144.4 hPa WNW 35.7 km/h 35.7 km/h 81 % 0 mm 49.0 W/m2 BKN
08:37 -11.5 °C -13.2 °C 34144.4 hPa West 26.9 km/h 26.9 km/h 81 % 0 mm 65.0 W/m2 SCT
08:42 -11.4 °C -13.2 °C 34144.4 hPa NW 25.9 km/h 25.9 km/h 81 % 0 mm 69.0 W/m2 SCT
08:47 -11.4 °C -13.2 °C 34154.6 hPa WNW 47.6 km/h 47.6 km/h 81 % 0 mm 58.0 W/m2 FEW
08:52 -11.4 °C -13.2 °C 34154.6 hPa NW 44.7 km/h 44.7 km/h 81 % 0 mm 62.0 W/m2 SCT
08:57 -11.4 °C -13.2 °C 34154.6 hPa West 29.8 km/h 29.8 km/h 81 % 0 mm 67.0 W/m2 SCT
09:02 -11.4 °C -13.2 °C 34154.6 hPa NW 29.8 km/h 29.8 km/h 81 % 0 mm 77.0 W/m2 FEW
09:07 -11.3 °C -13.1 °C 34154.6 hPa WNW 29.8 km/h 29.8 km/h 81 % 0 mm 107.0 W/m2 FEW
09:12 -11.3 °C -13.1 °C 34154.6 hPa West 29.8 km/h 29.8 km/h 81 % 0 mm 109.0 W/m2 CLR
09:17 -11.3 °C -13.1 °C 34154.6 hPa West 38.8 km/h 38.8 km/h 81 % 0 mm 132.0 W/m2 CLR
09:22 -11.3 °C -13 °C 34154.6 hPa West 29.8 km/h 29.8 km/h 81 % 0 mm 128.0 W/m2 CLR
09:27 -11.2 °C -13.1 °C 34154.6 hPa West 35.7 km/h 35.7 km/h 80 % 0 mm 148.0 W/m2 CLR
09:32 -11.2 °C -13.2 °C 34154.6 hPa West 47.6 km/h 47.6 km/h 79 % 0 mm 169.0 W/m2 CLR
09:37 -11.2 °C -13.3 °C 34154.6 hPa WNW 47.6 km/h 47.6 km/h 78 % 0 mm 188.0 W/m2 CLR
09:42 -11.2 °C -13.1 °C 34164.7 hPa NNW 29.8 km/h 29.8 km/h 79 % 0 mm 207.0 W/m2 CLR
09:47 -11.1 °C -13.1 °C 34154.6 hPa WNW 29.8 km/h 29.8 km/h 79 % 0 mm 214.0 W/m2 CLR
09:52 -11.1 °C -13.1 °C 34154.6 hPa WNW 29.8 km/h 29.8 km/h 78 % 0 mm 223.0 W/m2 CLR
09:57 -11 °C -13.1 °C 34164.7 hPa NW 29.8 km/h 29.8 km/h 78 % 0 mm 207.0 W/m2 CLR
10:02 -11 °C -13.2 °C 34154.6 hPa WNW 29.8 km/h 29.8 km/h 77 % 0 mm 193.0 W/m2 CLR
10:07 -11 °C -13.1 °C 34154.6 hPa West 26.9 km/h 26.9 km/h 78 % 0 mm 197.0 W/m2 CLR
10:12 -10.9 °C -13.2 °C 34164.7 hPa West 33.6 km/h 33.6 km/h 77 % 0 mm 204.0 W/m2 CLR
10:17 -10.9 °C -13.2 °C 34164.7 hPa West 23.8 km/h 23.8 km/h 77 % 0 mm 183.0 W/m2 CLR
10:22 -10.9 °C -13.1 °C 34164.7 hPa NW 29.8 km/h 29.8 km/h 77 % 0 mm 204.0 W/m2 CLR
10:27 -10.9 °C -13 °C 34164.7 hPa WNW 26.9 km/h 26.9 km/h 78 % 0 mm 255.0 W/m2 CLR
10:32 -10.9 °C -13.2 °C 34164.7 hPa WNW 41.7 km/h 41.7 km/h 76 % 0 mm 279.0 W/m2 CLR
10:37 -10.9 °C -13.2 °C 34178.3 hPa West 29.8 km/h 29.8 km/h 77 % 0 mm 274.0 W/m2 CLR
10:42 -10.9 °C -13.1 °C 34178.3 hPa WNW 44.1 km/h 44.1 km/h 77 % 0 mm 288.0 W/m2 CLR
10:47 -10.9 °C -13.1 °C 34178.3 hPa NW 35.7 km/h 35.7 km/h 77 % 0 mm 292.0 W/m2 CLR
10:52 -10.8 °C -13.1 °C 34178.3 hPa WNW 41.4 km/h 41.4 km/h 76 % 0 mm 281.0 W/m2 CLR
10:57 -10.9 °C -13.1 °C 34178.3 hPa West 29.8 km/h 29.8 km/h 77 % 0 mm 260.0 W/m2 CLR
11:02 -10.8 °C -13 °C 34178.3 hPa WNW 32.8 km/h 32.8 km/h 77 % 0 mm 255.0 W/m2 CLR
11:07 -10.8 °C -13.1 °C 34178.3 hPa WNW 41.7 km/h 41.7 km/h 76 % 0 mm 294.0 W/m2 CLR
11:12 -10.8 °C -13.1 °C 34178.3 hPa NW 36.2 km/h 36.2 km/h 76 % 0 mm 329.0 W/m2 CLR
11:17 -10.7 °C -12.9 °C 34178.3 hPa WNW 28.5 km/h 28.5 km/h 77 % 0 mm 255.0 W/m2 CLR
11:22 -10.7 °C -12.9 °C 34178.3 hPa WNW 32.8 km/h 32.8 km/h 76 % 0 mm 272.0 W/m2 CLR
11:27 -10.7 °C -12.9 °C 34178.3 hPa WNW 47.6 km/h 47.6 km/h 76 % 0 mm 290.0 W/m2 CLR
11:32 -10.6 °C -13 °C 34178.3 hPa NNW 35.7 km/h 35.7 km/h 75 % 0 mm 295.0 W/m2 CLR
11:37 -10.6 °C -12.9 °C 34178.3 hPa WNW 25.9 km/h 25.9 km/h 76 % 0 mm 278.0 W/m2 CLR
11:42 -10.6 °C -13.1 °C 34188.4 hPa NW 38.8 km/h 38.8 km/h 74 % 0 mm 281.0 W/m2 CLR
11:52 -10.6 °C -12.8 °C 34178.3 hPa WNW 29.8 km/h 29.8 km/h 76 % 0 mm 367.0 W/m2 CLR
11:57 -10.6 °C -12.9 °C 34178.3 hPa WNW 38.8 km/h 38.8 km/h 75 % 0 mm 374.0 W/m2 CLR
12:02 -10.5 °C -12.9 °C 34178.3 hPa NNW 29.8 km/h 29.8 km/h 75 % 0 mm 448.0 W/m2 CLR
12:07 -10.4 °C -12.8 °C 34178.3 hPa NW 44.7 km/h 44.7 km/h 75 % 0 mm 485.0 W/m2 CLR
12:08 -10.4 °C -12.8 °C 34178.3 hPa NW 44.7 km/h 44.7 km/h 75 % 0 mm 485.0 W/m2 CLR
12:13 -10.4 °C -12.9 °C 34178.3 hPa NW 29.8 km/h 29.8 km/h 74 % 0 mm 687.0 W/m2 CLR
12:18 -10.3 °C -12.8 °C 34178.3 hPa WNW 29.8 km/h 29.8 km/h 74 % 0 mm 489.0 W/m2 CLR
12:23 -10.2 °C -12.9 °C 34178.3 hPa NW 50.7 km/h 50.7 km/h 72 % 0 mm 668.0 W/m2 CLR
12:38 -10.2 °C -13 °C 34178.3 hPa NW 41.7 km/h 41.7 km/h 71 % 0 mm 638.0 W/m2 CLR
12:43 -10.1 °C -13.1 °C 34178.3 hPa NW 35.7 km/h 35.7 km/h 70 % 0 mm 703.0 W/m2 CLR
12:48 -10.1 °C -13.2 °C 34178.3 hPa WNW 41.7 km/h 41.7 km/h 69 % 0 mm 621.0 W/m2 CLR
12:53 -10.1 °C -13.2 °C 34178.3 hPa WNW 38.8 km/h 38.8 km/h 69 % 0 mm 631.0 W/m2 CLR
12:58 -10.1 °C -13.1 °C 34178.3 hPa WNW 26.9 km/h 26.9 km/h 70 % 0 mm 657.0 W/m2 CLR
13:03 -9.9 °C -13.2 °C 34178.3 hPa NW 32.8 km/h 32.8 km/h 68 % 0 mm 715.0 W/m2 CLR
13:08 -10.1 °C -13.3 °C 34188.4 hPa WNW 31.1 km/h 31.1 km/h 68 % 0 mm 830.0 W/m2 CLR
13:13 -9.9 °C -13.1 °C 34178.3 hPa NW 44.7 km/h 44.7 km/h 68 % 0 mm 875.0 W/m2 CLR
13:18 -9.8 °C -13.2 °C 34178.3 hPa NNW 35.7 km/h 35.7 km/h 67 % 0 mm 533.0 W/m2 CLR
13:23 -9.9 °C -13.6 °C 34178.3 hPa NNW 41.7 km/h 41.7 km/h 65 % 0 mm 415.0 W/m2 CLR
13:25 -10.1 °C -13.5 °C 34178.3 hPa WNW 41.7 km/h 41.7 km/h 66 % 0 mm 387.0 W/m2 CLR
13:30 -10.2 °C -13.4 °C 34178.3 hPa West 29.8 km/h 29.8 km/h 68 % 0 mm 357.0 W/m2 CLR
13:35 -10.1 °C -13.3 °C 34178.3 hPa NNW 38.8 km/h 38.8 km/h 68 % 0 mm 424.0 W/m2 CLR
13:38 -10.1 °C -13.4 °C 34178.3 hPa NNW 29.8 km/h 29.8 km/h 67 % 0 mm 652.0 W/m2 CLR
13:43 -9.9 °C -13.4 °C 34178.3 hPa NW 32.8 km/h 32.8 km/h 66 % 0 mm 448.0 W/m2 CLR
13:48 -9.9 °C -13.2 °C 34178.3 hPa WNW 35.7 km/h 35.7 km/h 67 % 0 mm 647.0 W/m2 CLR
13:53 -9.8 °C -13.4 °C 34178.3 hPa WNW 44.7 km/h 44.7 km/h 65 % 0 mm 1027.0 W/m2 CLR
13:54 -9.8 °C -13.4 °C 34178.3 hPa WNW 38.8 km/h 38.8 km/h 65 % 0 mm 1027.0 W/m2 CLR
13:59 -9.6 °C -12.9 °C 34178.3 hPa North 33.6 km/h 33.6 km/h 67 % 0 mm 1067.0 W/m2 CLR
14:04 -9.7 °C -13.3 °C 34178.3 hPa WNW 35.7 km/h 35.7 km/h 65 % 0 mm 290.0 W/m2 CLR
14:09 -9.6 °C -13.2 °C 34178.3 hPa NW 35.7 km/h 35.7 km/h 65 % 0 mm 993.0 W/m2 CLR
14:14 -9.5 °C -13.2 °C 34178.3 hPa NW 29.8 km/h 29.8 km/h 64 % 0 mm 1116.0 W/m2 CLR
14:19 -9.6 °C -13.4 °C 34178.3 hPa NW 47.6 km/h 47.6 km/h 64 % 0 mm 345.0 W/m2 CLR
14:24 -9.8 °C -13.3 °C 34178.3 hPa WNW 41.7 km/h 41.7 km/h 66 % 0 mm 466.0 W/m2 CLR
14:29 -9.9 °C -13.5 °C 34178.3 hPa WNW 35.7 km/h 35.7 km/h 65 % 0 mm 394.0 W/m2 CLR
14:34 -9.9 °C -13.5 °C 34178.3 hPa NNW 35.7 km/h 35.7 km/h 65 % 0 mm 422.0 W/m2 CLR
14:39 -9.9 °C -13.4 °C 34178.3 hPa WNW 35.7 km/h 35.7 km/h 66 % 0 mm 371.0 W/m2 CLR
14:44 -9.9 °C -13.6 °C 34178.3 hPa WNW 35.7 km/h 35.7 km/h 65 % 0 mm 299.0 W/m2 CLR
14:49 -9.9 °C -13.4 °C 34178.3 hPa NNW 23.8 km/h 23.8 km/h 66 % 0 mm 316.0 W/m2 CLR
14:54 -9.8 °C -13.3 °C 34178.3 hPa NW 41.7 km/h 41.7 km/h 66 % 0 mm 408.0 W/m2 CLR
14:59 -9.8 °C -13.4 °C 34178.3 hPa NW 26.9 km/h 26.9 km/h 65 % 0 mm 345.0 W/m2 CLR
15:04 -9.9 °C -13.5 °C 34178.3 hPa WNW 32.8 km/h 32.8 km/h 65 % 0 mm 283.0 W/m2 CLR
15:09 -9.9 °C -13.4 °C 34178.3 hPa NW 32.8 km/h 32.8 km/h 66 % 0 mm 278.0 W/m2 CLR
15:14 -9.9 °C -13.7 °C 34188.4 hPa NNW 35.7 km/h 35.7 km/h 64 % 0 mm 213.0 W/m2 CLR
15:19 -10.1 °C -13.8 °C 34178.3 hPa NW 29.8 km/h 29.8 km/h 64 % 0 mm 251.0 W/m2 CLR
15:24 -10.1 °C -13.9 °C 34178.3 hPa NNW 35.7 km/h 35.7 km/h 63 % 0 mm 227.0 W/m2 CLR
15:29 -10.1 °C -13.7 °C 34188.4 hPa NW 32.8 km/h 32.8 km/h 65 % 0 mm 207.0 W/m2 CLR
15:31 -10.2 °C -13.8 °C 34188.4 hPa NW 29.8 km/h 29.8 km/h 64 % 0 mm 223.0 W/m2 CLR
15:36 -10.2 °C -13.7 °C 34188.4 hPa WNW 29.8 km/h 29.8 km/h 65 % 0 mm 230.0 W/m2 CLR
15:41 -10.2 °C -13.6 °C 34178.3 hPa NNW 31.1 km/h 31.1 km/h 66 % 0 mm 306.0 W/m2 CLR
15:46 -10.1 °C -13.7 °C 34188.4 hPa NW 26.9 km/h 26.9 km/h 65 % 0 mm 214.0 W/m2 CLR
15:51 -10.2 °C -14 °C 34188.4 hPa NNW 29.8 km/h 29.8 km/h 63 % 0 mm 181.0 W/m2 CLR
15:56 -10.2 °C -14.1 °C 34188.4 hPa NNW 29.8 km/h 29.8 km/h 63 % 0 mm 185.0 W/m2 CLR
16:01 -10.3 °C -14 °C 34188.4 hPa NW 26.9 km/h 26.9 km/h 64 % 0 mm 171.0 W/m2 CLR
16:06 -10.3 °C -14 °C 34188.4 hPa NW 35.7 km/h 35.7 km/h 64 % 0 mm 162.0 W/m2 CLR
16:11 -10.4 °C -13.9 °C 34188.4 hPa WNW 20.9 km/h 20.9 km/h 65 % 0 mm 139.0 W/m2 CLR
16:16 -10.4 °C -14.1 °C 34188.4 hPa WNW 29.8 km/h 29.8 km/h 64 % 0 mm 113.0 W/m2 CLR
16:21 -10.4 °C -14.3 °C 34188.4 hPa NW 23.3 km/h 23.3 km/h 63 % 0 mm 113.0 W/m2 CLR
16:26 -10.4 °C -14.3 °C 34188.4 hPa NW 28.5 km/h 28.5 km/h 63 % 0 mm 81.0 W/m2 CLR
16:31 -10.4 °C -14.3 °C 34188.4 hPa WNW 23.8 km/h 23.8 km/h 63 % 0 mm 84.0 W/m2 CLR
16:36 -10.4 °C -14.1 °C 34188.4 hPa WNW 23.8 km/h 23.8 km/h 64 % 0 mm 60.0 W/m2 FEW
16:41 -10.4 °C -14.1 °C 34188.4 hPa WNW 26.9 km/h 26.9 km/h 64 % 0 mm 63.0 W/m2 SCT
16:46 -10.4 °C -14.1 °C 34188.4 hPa NW 26.9 km/h 26.9 km/h 64 % 0 mm 77.0 W/m2 SCT
16:51 -10.4 °C -14.2 °C 34188.4 hPa NW 26.9 km/h 26.9 km/h 63 % 0 mm 74.0 W/m2 FEW
16:56 -10.4 °C -14.2 °C 34188.4 hPa NW 20.9 km/h 20.9 km/h 63 % 0 mm 56.0 W/m2 FEW
17:01 -10.4 °C -14.3 °C 34188.4 hPa NW 38.8 km/h 38.8 km/h 62 % 0 mm 60.0 W/m2 SCT
17:02 -10.4 °C -14.6 °C 34188.4 hPa NW 41.7 km/h 41.7 km/h 61 % 0 mm 56.0 W/m2 SCT
17:07 -10.5 °C -14.6 °C 34188.4 hPa NW 33.6 km/h 33.6 km/h 61 % 0 mm 49.0 W/m2 SCT
17:12 -10.5 °C -14.6 °C 34188.4 hPa NW 29.8 km/h 29.8 km/h 61 % 0 mm 42.0 W/m2 SCT
17:17 -10.5 °C -14.6 °C 34188.4 hPa NNW 29.8 km/h 29.8 km/h 61 % 0 mm 42.0 W/m2 BKN
17:22 -10.5 °C -14.6 °C 34188.4 hPa NW 29.8 km/h 29.8 km/h 61 % 0 mm 49.0 W/m2 SCT
17:27 -10.5 °C -14.8 °C 34188.4 hPa NW 29.8 km/h 29.8 km/h 60 % 0 mm 72.0 W/m2 FEW
17:32 -10.5 °C -14.6 °C 34188.4 hPa NW 31.1 km/h 31.1 km/h 61 % 0 mm 77.0 W/m2 SCT
17:37 -10.5 °C -14.7 °C 34188.4 hPa WNW 29.8 km/h 29.8 km/h 60 % 0 mm 105.0 W/m2 FEW
17:42 -10.5 °C -14.6 °C 34188.4 hPa NW 26.9 km/h 26.9 km/h 61 % 0 mm 67.0 W/m2 CLR
17:47 -10.6 °C -14.6 °C 34188.4 hPa NW 23.8 km/h 23.8 km/h 61 % 0 mm 76.0 W/m2 FEW
17:52 -10.6 °C -14.6 °C 34188.4 hPa NW 9 km/h 13.5 km/h 61 % 0 mm 53.0 W/m2 FEW
17:57 -10.6 °C -14.8 °C 34198.6 hPa NW 29.8 km/h 29.8 km/h 60 % 0 mm 44.0 W/m2 SCT
18:02 -10.6 °C -14.9 °C 34198.6 hPa WNW 32.8 km/h 32.8 km/h 59 % 0 mm 54.0 W/m2 SCT
18:08 -10.6 °C -14.9 °C 34198.6 hPa NW 26.9 km/h 26.9 km/h 59 % 0 mm 40.0 W/m2 SCT
18:13 -10.7 °C -15 °C 34198.6 hPa NNW 28.5 km/h 28.5 km/h 59 % 0 mm 32.0 W/m2 SCT
18:18 -10.7 °C -15.2 °C 34198.6 hPa NW 29.8 km/h 29.8 km/h 58 % 0 mm 44.0 W/m2 BKN
18:23 -10.7 °C -15.1 °C 34198.6 hPa WNW 29.8 km/h 29.8 km/h 59 % 0 mm 37.0 W/m2 BKN
18:33 -10.8 °C -15.4 °C 34198.6 hPa NW 38.8 km/h 38.8 km/h 57 % 0 mm 25.0 W/m2 BKN
18:38 -10.9 °C -15.5 °C 34212.1 hPa WNW 35.7 km/h 35.7 km/h 57 % 0 mm 25.0 W/m2 BKN
18:43 -10.9 °C -15.5 °C 34212.1 hPa WNW 33.6 km/h 33.6 km/h 57 % 0 mm 33.0 W/m2 BKN
18:48 -10.9 °C -15.5 °C 34212.1 hPa NW 35.7 km/h 35.7 km/h 57 % 0 mm 30.0 W/m2 BKN
18:53 -10.9 °C -15.6 °C 34212.1 hPa NW 35.7 km/h 35.7 km/h 57 % 0 mm 26.0 W/m2 BKN
18:58 -10.9 °C -15.6 °C 34212.1 hPa WNW 23.8 km/h 23.8 km/h 57 % 0 mm 26.0 W/m2 BKN
19:03 -11 °C -15.6 °C 34212.1 hPa NW 29.8 km/h 29.8 km/h 57 % 0 mm 26.0 W/m2 BKN
19:08 -11 °C -15.6 °C 34212.1 hPa West 29.8 km/h 29.8 km/h 57 % 0 mm 21.0 W/m2 BKN
19:13 -11 °C -15.7 °C 34212.1 hPa West 35.7 km/h 35.7 km/h 56 % 0 mm 28.0 W/m2 BKN
19:18 -11 °C -15.7 °C 34212.1 hPa WNW 32.8 km/h 32.8 km/h 56 % 0 mm 19.0 W/m2 BKN
19:23 -11.1 °C -15.8 °C 34222.3 hPa WNW 26.9 km/h 26.9 km/h 56 % 0 mm 14.0 W/m2 BKN
19:28 -11.1 °C -15.7 °C 34222.3 hPa WNW 26.9 km/h 26.9 km/h 57 % 0 mm 18.0 W/m2 BKN
19:33 -11.2 °C -15.4 °C 34222.3 hPa West 23.8 km/h 23.8 km/h 60 % 0 mm 16.0 W/m2 BKN
19:38 -11.3 °C -15.4 °C 34222.3 hPa WNW 26.9 km/h 26.9 km/h 61 % 0 mm 19.0 W/m2 BKN
19:43 -11.4 °C -15.3 °C 34222.3 hPa West 20.9 km/h 20.9 km/h 62 % 0 mm 12.0 W/m2 BKN
19:48 -11.4 °C -15.4 °C 34235.8 hPa WNW 29.8 km/h 29.8 km/h 61 % 0 mm 11.0 W/m2 BKN
19:53 -11.4 °C -15.5 °C 34235.8 hPa WNW 31.1 km/h 31.1 km/h 61 % 0 mm 9.0 W/m2 BKN
19:58 -11.5 °C -15.4 °C 34235.8 hPa WNW 20.9 km/h 20.9 km/h 62 % 0 mm 9.0 W/m2 BKN
20:03 -11.6 °C -15.4 °C 34235.8 hPa WNW 6 km/h 6 km/h 63 % 0 mm 11.0 W/m2 BKN
20:08 -11.7 °C -15.4 °C 34235.8 hPa WNW 23.8 km/h 23.8 km/h 64 % 7.62 mm 9.0 W/m2 RA
20:13 -11.8 °C -15.4 °C 34235.8 hPa WNW 20.9 km/h 20.9 km/h 64 % 7.62 mm 7.0 W/m2 BKN
20:18 -11.8 °C -15.3 °C 34235.8 hPa West 26.9 km/h 26.9 km/h 65 % 7.62 mm 9.0 W/m2 BKN
20:23 -11.8 °C -15.4 °C 34246 hPa WNW 20.9 km/h 20.9 km/h 64 % 7.62 mm 7.0 W/m2 BKN
20:28 -11.8 °C -15.7 °C 34246 hPa West 26.9 km/h 26.9 km/h 62 % 7.62 mm 0.0 W/m2 OVC
20:33 -11.7 °C -15.8 °C 34246 hPa WNW 29.8 km/h 29.8 km/h 60 % 7.62 mm 0.0 W/m2 OVC
20:38 -11.6 °C -15.8 °C 34246 hPa WNW 23.8 km/h 23.8 km/h 60 % 7.62 mm 0.0 W/m2 OVC
20:43 -11.6 °C -16.1 °C 34246 hPa WNW 35.7 km/h 35.7 km/h 58 % 7.62 mm 0.0 W/m2 OVC
20:48 -11.7 °C -15.8 °C 34246 hPa NW 26.9 km/h 26.9 km/h 60 % 7.62 mm 0.0 W/m2 OVC
20:53 -11.7 °C -15.7 °C 34246 hPa Calm     61 % 7.62 mm 0.0 W/m2 OVC
20:58 -11.7 °C -15.9 °C 34246 hPa WNW 20.9 km/h 20.9 km/h 60 % 7.62 mm 0.0 W/m2 OVC
21:03 -11.7 °C -16.1 °C 34256.2 hPa NW 31.1 km/h 31.1 km/h 58 % 7.62 mm 0.0 W/m2 CLR
21:09 -11.7 °C -16.2 °C 34256.2 hPa WNW 29.8 km/h 29.8 km/h 57 % 0 mm 0.0 W/m2 CLR
21:14 -11.7 °C -16.3 °C 34256.2 hPa West 26.9 km/h 26.9 km/h 56 % 0 mm 0.0 W/m2 CLR
21:19 -11.7 °C -16.2 °C 34269.7 hPa WNW 23.8 km/h 23.8 km/h 57 % 0 mm 0.0 W/m2 CLR
21:24 -11.7 °C -16.3 °C 34269.7 hPa West 38.8 km/h 38.8 km/h 57 % 0 mm 0.0 W/m2 CLR
21:29 -11.7 °C -16.4 °C 34269.7 hPa WNW 38.8 km/h 38.8 km/h 56 % 0 mm 0.0 W/m2 CLR
21:34 -11.7 °C -16.4 °C 34279.9 hPa WNW 31.1 km/h 31.1 km/h 56 % 0 mm 0.0 W/m2 CLR
21:39 -11.7 °C -16.4 °C 34279.9 hPa WNW 35.7 km/h 35.7 km/h 56 % 0 mm 0.0 W/m2 CLR
21:44 -11.8 °C -16.6 °C 34279.9 hPa WNW 26.9 km/h 26.9 km/h 55 % 0 mm 0.0 W/m2 CLR
21:49 -11.8 °C -16.6 °C 34293.4 hPa West 29.8 km/h 29.8 km/h 55 % 0 mm 0.0 W/m2 CLR
21:54 -11.8 °C -16.6 °C 34293.4 hPa West 29.8 km/h 29.8 km/h 55 % 0 mm 0.0 W/m2 CLR
21:59 -11.8 °C -16.6 °C 34293.4 hPa West 29.8 km/h 29.8 km/h 55 % 0 mm 0.0 W/m2 CLR
22:04 -11.8 °C -16.6 °C 34293.4 hPa WNW 38.8 km/h 38.8 km/h 55 % 0 mm 0.0 W/m2 CLR
22:09 -11.8 °C -16.7 °C 34293.4 hPa WNW 35.7 km/h 35.7 km/h 55 % 0 mm 0.0 W/m2 CLR
22:14 -11.9 °C -16.6 °C 34293.4 hPa WNW 50.7 km/h 50.7 km/h 56 % 0 mm 0.0 W/m2 CLR
22:19 -11.9 °C -16.6 °C 34303.6 hPa NNW 29.8 km/h 29.8 km/h 56 % 0 mm 0.0 W/m2 CLR
22:24 -11.9 °C -16.6 °C 34303.6 hPa West 23.8 km/h 23.8 km/h 56 % 0 mm 0.0 W/m2 CLR
22:29 -11.9 °C -16.5 °C 34303.6 hPa WNW 26.9 km/h 26.9 km/h 57 % 0 mm 0.0 W/m2 CLR
22:34 -12 °C -16.7 °C 34303.6 hPa WNW 32.8 km/h 32.8 km/h 56 % 0 mm 0.0 W/m2 CLR
22:39 -12 °C -16.7 °C 34313.7 hPa WNW 44.7 km/h 44.7 km/h 56 % 0 mm 0.0 W/m2 CLR
22:41 -12.1 °C -16.7 °C 34313.7 hPa WNW 29.8 km/h 29.8 km/h 56 % 0 mm 0.0 W/m2 CLR
22:46 -12.1 °C -16.7 °C 34313.7 hPa WNW 41.7 km/h 41.7 km/h 56 % 0 mm 0.0 W/m2 CLR
22:51 -12.1 °C -16.9 °C 34313.7 hPa WNW 35.7 km/h 35.7 km/h 55 % 0 mm 0.0 W/m2 CLR
22:56 -12.1 °C -16.9 °C 34313.7 hPa NW 47.6 km/h 47.6 km/h 55 % 0 mm 0.0 W/m2 CLR
22:58 -12.2 °C -17 °C 34313.7 hPa WNW 44.7 km/h 44.7 km/h 55 % 0 mm 0.0 W/m2 CLR
23:08 -12.3 °C -16.9 °C 34327.3 hPa WNW 38.8 km/h 38.8 km/h 56 % 0 mm 0.0 W/m2 CLR
23:13 -12.3 °C -17.3 °C 34327.3 hPa WNW 35.7 km/h 35.7 km/h 54 % 0 mm 0.0 W/m2 CLR
23:18 -12.3 °C -17.3 °C 34327.3 hPa WNW 44.7 km/h 44.7 km/h 54 % 0 mm 0.0 W/m2 CLR
23:23 -12.4 °C -17.3 °C 34327.3 hPa WNW 38.8 km/h 38.8 km/h 54 % 0 mm 0.0 W/m2 CLR
23:28 -12.4 °C -17.3 °C 34327.3 hPa WNW 38.8 km/h 38.8 km/h 54 % 0 mm 0.0 W/m2 CLR
23:33 -12.4 °C -17.4 °C 34327.3 hPa NW 32.8 km/h 32.8 km/h 54 % 0 mm 0.0 W/m2 CLR
23:38 -12.4 °C -17.4 °C 34327.3 hPa WNW 32.8 km/h 32.8 km/h 54 % 0 mm 0.0 W/m2 CLR
23:43 -12.5 °C -17.4 °C 34337.4 hPa WNW 35.7 km/h 35.7 km/h 54 % 0 mm 0.0 W/m2 CLR
23:48 -12.6 °C -17.4 °C 34327.3 hPa West 38.8 km/h 38.8 km/h 54 % 0 mm 0.0 W/m2 CLR
23:53 -12.6 °C -17.6 °C 34327.3 hPa West 50.7 km/h 50.7 km/h 53 % 0 mm 0.0 W/m2 CLR
23:58 -12.6 °C -17.6 °C 34337.4 hPa West 44.7 km/h 44.7 km/h 53 % 0 mm 0.0 W/m2 CLR
Lo Temps de Massalio
Compliments of Weather Underground - 1.25 mb